Time,TemperatureF,DewpointF,PressureIn,WindDirection,WindDirectionDegrees,WindSpeedMPH,WindSpeedGustMPH,Humidity,HourlyPrecipIn,Conditions,Clouds,dailyrainin,SoftwareType,DateUTC
2013-04-12 00:01:00,54.4,45.9,29.88,NNE,23,2.7,2.7,73,0.00,,,0.00,WUHU216HW,2013-04-12 07:01:00,
2013-04-12 00:06:00,54.4,45.9,29.88,NW,315,1.6,2.7,73,0.00,,,0.00,WUHU216HW,2013-04-12 07:06:00,
2013-04-12 00:11:00,54.2,45.7,29.88,WNW,293,3.6,3.6,73,0.00,,,0.00,WUHU216HW,2013-04-12 07:11:00,
2013-04-12 00:16:00,53.8,45.4,29.88,NNW,338,1.8,4.0,73,0.00,,,0.00,WUHU216HW,2013-04-12 07:16:00,
2013-04-12 00:22:00,53.6,45.5,29.88,NW,315,2.7,4.0,74,0.00,,,0.00,WUHU216HW,2013-04-12 07:22:00,
2013-04-12 00:27:00,53.5,45.4,29.88,WNW,293,1.6,3.6,74,0.00,,,0.00,WUHU216HW,2013-04-12 07:27:00,
2013-04-12 00:32:00,53.5,45.4,29.88,WNW,293,4.0,4.0,74,0.00,,,0.00,WUHU216HW,2013-04-12 07:32:00,
2013-04-12 00:37:00,53.5,45.7,29.88,NW,315,2.7,4.0,75,0.00,,,0.00,WUHU216HW,2013-04-12 07:37:00,
2013-04-12 00:42:00,53.3,45.5,29.88,West,270,3.8,3.8,75,0.00,,,0.00,WUHU216HW,2013-04-12 07:42:00,
2013-04-12 00:47:00,53.5,45.7,29.88,WNW,293,7.6,7.6,75,0.00,,,0.00,WUHU216HW,2013-04-12 07:47:00,
2013-04-12 00:52:00,53.5,45.7,29.88,West,270,4.5,7.6,75,0.00,,,0.00,WUHU216HW,2013-04-12 07:52:00,
2013-04-12 00:57:00,53.5,45.7,29.88,West,270,3.8,5.4,75,0.00,,,0.00,WUHU216HW,2013-04-12 07:57:00,
2013-04-12 01:02:00,53.3,45.2,29.88,West,270,5.4,5.4,74,0.00,,,0.00,WUHU216HW,2013-04-12 08:02:00,
2013-04-12 01:07:00,53.1,45.0,29.88,NNW,338,1.6,5.4,74,0.00,,,0.00,WUHU216HW,2013-04-12 08:07:00,
2013-04-12 01:12:00,53.1,45.0,29.89,NNW,338,0.4,5.4,74,0.00,,,0.00,WUHU216HW,2013-04-12 08:12:00,
2013-04-12 01:17:00,53.1,45.0,29.88,SSE,158,0.0,1.8,74,0.00,,,0.00,WUHU216HW,2013-04-12 08:17:00,
2013-04-12 01:22:00,53.3,45.2,29.88,South,180,0.9,0.9,74,0.00,,,0.00,WUHU216HW,2013-04-12 08:22:00,
2013-04-12 01:27:00,53.3,45.2,29.88,WSW,248,1.3,1.3,74,0.00,,,0.00,WUHU216HW,2013-04-12 08:27:00,
2013-04-12 01:32:00,53.3,45.5,29.89,NNE,23,1.6,1.6,75,0.00,,,0.00,WUHU216HW,2013-04-12 08:32:00,
2013-04-12 01:37:00,53.3,44.8,29.89,WNW,293,1.1,1.6,73,0.00,,,0.00,WUHU216HW,2013-04-12 08:37:00,
2013-04-12 01:42:00,53.3,44.8,29.89,WNW,293,1.3,1.3,73,0.00,,,0.00,WUHU216HW,2013-04-12 08:42:00,
2013-04-12 01:47:00,53.3,44.8,29.88,North,0,0.4,1.3,73,0.00,,,0.00,WUHU216HW,2013-04-12 08:47:00,
2013-04-12 01:52:00,53.3,44.8,29.88,NNW,338,1.8,1.8,73,0.00,,,0.00,WUHU216HW,2013-04-12 08:52:00,
2013-04-12 01:57:00,53.1,44.6,29.89,NW,315,2.2,2.2,73,0.00,,,0.00,WUHU216HW,2013-04-12 08:57:00,
2013-04-12 02:02:00,53.1,44.6,29.89,NNE,23,0.0,2.2,73,0.00,,,0.00,WUHU216HW,2013-04-12 09:02:00,
2013-04-12 02:07:00,53.1,44.3,29.88,SE,135,1.6,1.6,72,0.00,,,0.00,WUHU216HW,2013-04-12 09:07:00,
2013-04-12 02:12:00,52.9,44.2,29.88,ENE,68,1.1,1.6,72,0.00,,,0.00,WUHU216HW,2013-04-12 09:12:00,
2013-04-12 02:17:00,52.7,44.0,29.89,SE,135,0.9,1.8,72,0.00,,,0.00,WUHU216HW,2013-04-12 09:17:00,
2013-04-12 02:22:00,52.7,44.0,29.89,SE,135,0.0,1.8,72,0.00,,,0.00,WUHU216HW,2013-04-12 09:22:00,
2013-04-12 02:27:00,52.6,43.8,29.89,SE,135,0.0,0.9,72,0.00,,,0.00,WUHU216HW,2013-04-12 09:27:00,
2013-04-12 02:32:00,52.6,43.8,29.89,SE,135,0.9,0.9,72,0.00,,,0.00,WUHU216HW,2013-04-12 09:32:00,
2013-04-12 02:37:00,52.4,43.7,29.88,East,90,1.6,1.6,72,0.00,,,0.00,WUHU216HW,2013-04-12 09:37:00,
2013-04-12 02:42:00,52.2,43.8,29.88,SE,135,0.0,1.6,73,0.00,,,0.00,WUHU216HW,2013-04-12 09:42:00,
2013-04-12 02:47:00,52.2,43.5,29.88,SE,135,0.0,1.6,72,0.00,,,0.00,WUHU216HW,2013-04-12 09:47:00,
2013-04-12 02:52:00,52.2,43.8,29.88,ESE,113,0.7,0.7,73,0.00,,,0.00,WUHU216HW,2013-04-12 09:52:00,
2013-04-12 02:57:00,52.0,43.3,29.88,NE,45,0.0,0.7,72,0.00,,,0.00,WUHU216HW,2013-04-12 09:57:00,
2013-04-12 03:02:00,51.8,43.5,29.88,NE,45,0.0,0.7,73,0.00,,,0.00,WUHU216HW,2013-04-12 10:02:00,
2013-04-12 03:07:00,51.7,43.3,29.88,ENE,68,0.2,0.7,73,0.00,,,0.00,WUHU216HW,2013-04-12 10:07:00,
2013-04-12 03:12:00,51.5,43.1,29.88,SE,135,0.0,1.1,73,0.00,,,0.00,WUHU216HW,2013-04-12 10:12:00,
2013-04-12 03:17:00,51.5,43.1,29.88,SE,135,0.0,1.1,73,0.00,,,0.00,WUHU216HW,2013-04-12 10:17:00,
2013-04-12 03:22:00,51.3,42.9,29.88,SE,135,0.0,0.4,73,0.00,,,0.00,WUHU216HW,2013-04-12 10:22:00,
2013-04-12 03:27:00,51.1,42.8,29.88,SE,135,0.4,0.4,73,0.00,,,0.00,WUHU216HW,2013-04-12 10:27:00,
2013-04-12 03:32:00,51.1,42.8,29.87,SE,135,0.0,0.4,73,0.00,,,0.00,WUHU216HW,2013-04-12 10:32:00,
2013-04-12 03:37:00,50.9,42.6,29.87,SE,135,0.0,0.4,73,0.00,,,0.00,WUHU216HW,2013-04-12 10:37:00,
2013-04-12 03:42:00,50.9,42.6,29.87,SE,135,0.0,0.4,73,0.00,,,0.00,WUHU216HW,2013-04-12 10:42:00,
2013-04-12 03:47:00,50.8,42.8,29.87,SE,135,0.2,0.2,74,0.00,,,0.00,WUHU216HW,2013-04-12 10:47:00,
2013-04-12 03:52:00,50.8,42.8,29.86,NNE,23,0.4,0.7,74,0.00,,,0.00,WUHU216HW,2013-04-12 10:52:00,
2013-04-12 03:57:00,50.6,42.6,29.87,ENE,68,1.1,1.1,74,0.00,,,0.00,WUHU216HW,2013-04-12 10:57:00,
2013-04-12 04:02:00,50.6,42.6,29.87,East,90,0.0,1.1,74,0.00,,,0.00,WUHU216HW,2013-04-12 11:02:00,
2013-04-12 04:07:00,50.4,42.4,29.87,ENE,68,1.1,1.1,74,0.00,,,0.00,WUHU216HW,2013-04-12 11:07:00,
2013-04-12 04:12:00,50.4,42.4,29.86,NE,45,1.3,1.3,74,0.00,,,0.00,WUHU216HW,2013-04-12 11:12:00,
2013-04-12 04:17:00,50.4,42.8,29.87,ENE,68,2.5,2.5,75,0.00,,,0.00,WUHU216HW,2013-04-12 11:17:00,
2013-04-12 04:22:00,50.4,42.8,29.87,NE,45,2.9,2.9,75,0.00,,,0.00,WUHU216HW,2013-04-12 11:22:00,
2013-04-12 04:27:00,50.4,42.8,29.86,ENE,68,2.9,2.9,75,0.00,,,0.00,WUHU216HW,2013-04-12 11:27:00,
2013-04-12 04:32:00,50.2,42.6,29.87,SE,135,2.5,3.4,75,0.00,,,0.00,WUHU216HW,2013-04-12 11:32:00,
2013-04-12 04:37:00,50.0,42.4,29.86,ESE,113,2.9,3.4,75,0.00,,,0.00,WUHU216HW,2013-04-12 11:37:00,
2013-04-12 04:42:00,50.0,42.4,29.86,East,90,1.3,3.4,75,0.00,,,0.00,WUHU216HW,2013-04-12 11:42:00,
2013-04-12 04:47:00,50.0,42.4,29.86,ENE,68,2.0,3.4,75,0.00,,,0.00,WUHU216HW,2013-04-12 11:47:00,
2013-04-12 04:52:00,50.0,42.8,29.86,ENE,68,2.5,2.5,76,0.00,,,0.00,WUHU216HW,2013-04-12 11:52:00,
2013-04-12 04:57:00,50.0,42.8,29.86,East,90,0.9,2.5,76,0.00,,,0.00,WUHU216HW,2013-04-12 11:57:00,
2013-04-12 05:02:00,50.0,42.8,29.86,NE,45,0.7,2.5,76,0.00,,,0.00,WUHU216HW,2013-04-12 12:02:00,
2013-04-12 05:07:00,50.0,42.8,29.86,NNW,338,0.0,1.1,76,0.00,,,0.00,WUHU216HW,2013-04-12 12:07:00,
2013-04-12 05:12:00,49.9,42.6,29.86,NNW,338,0.0,0.7,76,0.00,,,0.00,WUHU216HW,2013-04-12 12:12:00,
2013-04-12 05:17:00,49.9,42.6,29.86,NNW,338,0.0,0.0,76,0.00,,,0.00,WUHU216HW,2013-04-12 12:17:00,
2013-04-12 05:23:00,49.9,42.6,29.87,NNW,338,0.0,0.0,76,0.00,,,0.00,WUHU216HW,2013-04-12 12:23:00,
2013-04-12 05:28:00,49.9,42.6,29.87,NNW,338,0.7,0.7,76,0.00,,,0.00,WUHU216HW,2013-04-12 12:28:00,
2013-04-12 05:33:00,49.9,42.6,29.87,NNE,23,0.0,1.1,76,0.00,,,0.00,WUHU216HW,2013-04-12 12:33:00,
2013-04-12 05:38:00,49.7,42.4,29.87,NNE,23,0.0,1.1,76,0.00,,,0.00,WUHU216HW,2013-04-12 12:38:00,
2013-04-12 05:43:00,49.7,42.4,29.87,NNE,23,0.0,0.0,76,0.00,,,0.00,WUHU216HW,2013-04-12 12:43:00,
2013-04-12 05:48:00,49.7,42.4,29.87,North,0,0.0,0.0,76,0.00,,,0.00,WUHU216HW,2013-04-12 12:48:00,
2013-04-12 05:53:00,49.5,42.2,29.87,NW,315,0.0,0.0,76,0.00,,,0.00,WUHU216HW,2013-04-12 12:53:00,
2013-04-12 05:58:00,49.5,42.2,29.87,WNW,293,0.7,0.7,76,0.00,,,0.00,WUHU216HW,2013-04-12 12:58:00,
2013-04-12 06:03:00,49.3,42.0,29.86,NNE,23,0.4,1.3,76,0.00,,,0.00,WUHU216HW,2013-04-12 13:03:00,
2013-04-12 06:08:00,49.3,42.0,29.86,NNE,23,0.9,1.3,76,0.00,,,0.00,WUHU216HW,2013-04-12 13:08:00,
2013-04-12 06:13:00,49.3,42.0,29.87,ENE,68,0.0,0.9,76,0.00,,,0.00,WUHU216HW,2013-04-12 13:13:00,
2013-04-12 06:18:00,49.3,42.0,29.87,ENE,68,0.0,0.9,76,0.00,,,0.00,WUHU216HW,2013-04-12 13:18:00,
2013-04-12 06:23:00,49.1,41.9,29.87,NNE,23,0.0,0.4,76,0.00,,,0.00,WUHU216HW,2013-04-12 13:23:00,
2013-04-12 06:28:00,49.1,42.2,29.87,NNE,23,0.0,0.4,77,0.00,,,0.00,WUHU216HW,2013-04-12 13:28:00,
2013-04-12 06:33:00,49.1,42.2,29.87,NNE,23,0.4,0.4,77,0.00,,,0.00,WUHU216HW,2013-04-12 13:33:00,
2013-04-12 06:38:00,49.1,42.2,29.88,North,0,0.0,0.4,77,0.00,,,0.00,WUHU216HW,2013-04-12 13:38:00,
2013-04-12 06:43:00,49.1,42.2,29.88,North,0,0.0,0.4,77,0.00,,,0.00,WUHU216HW,2013-04-12 13:43:00,
2013-04-12 06:48:00,49.0,42.0,29.88,NNE,23,0.0,1.3,77,0.00,,,0.00,WUHU216HW,2013-04-12 13:48:00,
2013-04-12 06:53:00,49.1,42.2,29.88,North,0,0.0,1.3,77,0.00,,,0.00,WUHU216HW,2013-04-12 13:53:00,
2013-04-12 06:58:00,49.1,42.2,29.88,North,0,0.0,0.0,77,0.00,,,0.00,WUHU216HW,2013-04-12 13:58:00,
2013-04-12 07:03:00,49.0,42.3,29.89,NNW,338,0.4,1.8,78,0.00,,,0.00,WUHU216HW,2013-04-12 14:03:00,
2013-04-12 07:08:00,49.0,42.3,29.89,NNE,23,0.7,1.8,78,0.00,,,0.00,WUHU216HW,2013-04-12 14:08:00,
2013-04-12 07:13:00,49.1,42.5,29.90,NE,45,1.6,2.0,78,0.00,,,0.00,WUHU216HW,2013-04-12 14:13:00,
2013-04-12 07:18:00,49.0,42.3,29.89,North,0,1.1,2.0,78,0.00,,,0.00,WUHU216HW,2013-04-12 14:18:00,
2013-04-12 07:23:00,49.0,42.3,29.90,NE,45,0.4,1.8,78,0.00,,,0.00,WUHU216HW,2013-04-12 14:23:00,
2013-04-12 07:28:00,49.1,42.5,29.89,North,0,1.3,1.8,78,0.00,,,0.00,WUHU216HW,2013-04-12 14:28:00,
2013-04-12 07:33:00,49.0,42.3,29.90,ENE,68,0.4,1.8,78,0.00,,,0.00,WUHU216HW,2013-04-12 14:33:00,
2013-04-12 07:38:00,49.0,42.3,29.90,NE,45,0.7,1.8,78,0.00,,,0.00,WUHU216HW,2013-04-12 14:38:00,
2013-04-12 07:43:00,49.0,42.3,29.90,North,0,0.9,1.3,78,0.00,,,0.00,WUHU216HW,2013-04-12 14:43:00,
2013-04-12 07:48:00,49.1,42.8,29.90,NNE,23,0.4,1.6,79,0.00,,,0.00,WUHU216HW,2013-04-12 14:48:00,
2013-04-12 07:53:00,49.3,43.0,29.90,ENE,68,0.7,1.6,79,0.00,,,0.00,WUHU216HW,2013-04-12 14:53:00,
2013-04-12 07:58:00,49.3,43.0,29.91,NE,45,0.9,1.6,79,0.00,,,0.00,WUHU216HW,2013-04-12 14:58:00,
2013-04-12 08:03:00,49.5,43.2,29.91,NE,45,0.4,0.9,79,0.00,,,0.00,WUHU216HW,2013-04-12 15:03:00,
2013-04-12 08:08:00,49.7,43.4,29.91,East,90,0.2,1.1,79,0.00,,,0.00,WUHU216HW,2013-04-12 15:08:00,
2013-04-12 08:13:00,49.9,43.9,29.91,NNE,23,0.4,1.1,80,0.00,,,0.00,WUHU216HW,2013-04-12 15:13:00,
2013-04-12 08:18:00,50.0,44.1,29.91,North,0,0.0,0.4,80,0.00,,,0.00,WUHU216HW,2013-04-12 15:18:00,
2013-04-12 08:23:00,50.2,44.3,29.91,North,0,0.0,0.0,80,0.00,,,0.00,WUHU216HW,2013-04-12 15:23:00,
2013-04-12 08:28:00,50.6,44.6,29.91,ENE,68,0.4,0.7,80,0.00,,,0.00,WUHU216HW,2013-04-12 15:28:00,
2013-04-12 08:33:00,50.9,45.0,29.91,WNW,293,1.3,1.3,80,0.00,,,0.00,WUHU216HW,2013-04-12 15:33:00,
2013-04-12 08:38:00,51.1,45.2,29.91,WNW,293,0.7,1.3,80,0.00,,,0.00,WUHU216HW,2013-04-12 15:38:00,
2013-04-12 08:43:00,51.5,45.5,29.91,SW,225,1.1,1.3,80,0.00,,,0.00,WUHU216HW,2013-04-12 15:43:00,
2013-04-12 08:48:00,51.5,45.5,29.91,SW,225,0.9,1.1,80,0.00,,,0.00,WUHU216HW,2013-04-12 15:48:00,
2013-04-12 08:53:00,52.2,46.3,29.91,South,180,0.9,2.5,80,0.00,,,0.00,WUHU216HW,2013-04-12 15:53:00,
2013-04-12 08:58:00,52.4,46.4,29.92,SW,225,0.0,2.5,80,0.00,,,0.00,WUHU216HW,2013-04-12 15:58:00,
2013-04-12 09:03:00,52.7,46.8,29.92,SSW,203,2.7,2.7,80,0.00,,,0.00,WUHU216HW,2013-04-12 16:03:00,
2013-04-12 09:08:00,52.9,47.0,29.92,NNW,338,1.1,2.7,80,0.00,,,0.00,WUHU216HW,2013-04-12 16:08:00,
2013-04-12 09:13:00,53.3,47.3,29.92,WSW,248,1.1,2.7,80,0.00,,,0.00,WUHU216HW,2013-04-12 16:13:00,
2013-04-12 09:18:00,53.6,47.3,29.91,West,270,0.4,1.8,79,0.00,,,0.00,WUHU216HW,2013-04-12 16:18:00,
2013-04-12 09:23:00,54.2,47.8,29.91,SSE,158,0.7,1.8,79,0.00,,,0.00,WUHU216HW,2013-04-12 16:23:00,
2013-04-12 09:28:00,54.4,47.6,29.91,SSW,203,2.5,2.9,78,0.00,,,0.00,WUHU216HW,2013-04-12 16:28:00,
2013-04-12 09:33:00,54.9,48.2,29.91,WSW,248,1.6,2.9,78,0.00,,,0.00,WUHU216HW,2013-04-12 16:33:00,
2013-04-12 09:38:00,55.1,48.3,29.92,WSW,248,1.1,2.5,78,0.00,,,0.00,WUHU216HW,2013-04-12 16:38:00,
2013-04-12 09:43:00,55.6,48.8,29.92,West,270,3.4,3.4,78,0.00,,,0.00,WUHU216HW,2013-04-12 16:43:00,
2013-04-12 09:48:00,56.0,49.1,29.92,WNW,293,0.4,4.3,78,0.00,,,0.00,WUHU216HW,2013-04-12 16:48:00,
2013-04-12 09:53:00,56.3,49.1,29.92,WSW,248,1.1,4.7,77,0.00,,,0.00,WUHU216HW,2013-04-12 16:53:00,
2013-04-12 09:58:00,56.7,49.1,29.92,WSW,248,2.5,4.7,76,0.00,,,0.00,WUHU216HW,2013-04-12 16:58:00,
2013-04-12 10:03:00,57.1,49.5,29.91,West,270,3.1,3.1,76,0.00,,,0.00,WUHU216HW,2013-04-12 17:03:00,
2013-04-12 10:08:00,57.4,49.5,29.91,WNW,293,0.7,3.1,75,0.00,,,0.00,WUHU216HW,2013-04-12 17:08:00,
2013-04-12 10:13:00,57.8,49.5,29.91,SSE,158,2.5,3.1,74,0.00,,,0.00,WUHU216HW,2013-04-12 17:13:00,
2013-04-12 10:18:00,58.3,50.0,29.91,SSW,203,2.7,2.9,74,0.00,,,0.00,WUHU216HW,2013-04-12 17:18:00,
2013-04-12 10:23:00,58.9,50.6,29.91,SSE,158,1.3,4.0,74,0.00,,,0.00,WUHU216HW,2013-04-12 17:23:00,
2013-04-12 10:28:00,59.4,50.8,29.91,WSW,248,2.0,4.0,73,0.00,,,0.00,WUHU216HW,2013-04-12 17:28:00,
2013-04-12 10:33:00,59.6,50.6,29.91,SE,135,0.7,2.5,72,0.00,,,0.00,WUHU216HW,2013-04-12 17:33:00,
2013-04-12 10:38:00,59.8,50.8,29.91,West,270,1.1,1.8,72,0.00,,,0.00,WUHU216HW,2013-04-12 17:38:00,
2013-04-12 10:43:00,60.5,51.1,29.91,West,270,2.2,2.2,71,0.00,,,0.00,WUHU216HW,2013-04-12 17:43:00,
2013-04-12 10:48:00,60.8,51.1,29.91,SSW,203,2.2,2.2,70,0.00,,,0.00,WUHU216HW,2013-04-12 17:48:00,
2013-04-12 10:54:00,61.0,51.3,29.91,NW,315,1.3,2.2,70,0.00,,,0.00,WUHU216HW,2013-04-12 17:54:00,
2013-04-12 10:59:00,61.6,51.4,29.91,WSW,248,2.5,2.5,69,0.00,,,0.00,WUHU216HW,2013-04-12 17:59:00,
2013-04-12 11:04:00,61.9,51.7,29.91,WSW,248,2.2,2.5,69,0.00,,,0.00,WUHU216HW,2013-04-12 18:04:00,
2013-04-12 11:09:00,62.3,52.0,29.91,NW,315,1.8,2.5,69,0.00,,,0.00,WUHU216HW,2013-04-12 18:09:00,
2013-04-12 11:14:00,62.5,51.8,29.90,West,270,3.8,3.8,68,0.00,,,0.00,WUHU216HW,2013-04-12 18:14:00,
2013-04-12 11:19:00,62.8,50.9,29.90,WSW,248,1.8,3.8,65,0.00,,,0.00,WUHU216HW,2013-04-12 18:19:00,
2013-04-12 11:24:00,62.8,51.3,29.91,WSW,248,1.1,3.8,66,0.00,,,0.00,WUHU216HW,2013-04-12 18:24:00,
2013-04-12 11:30:00,63.2,51.2,29.90,SSW,203,4.7,4.7,65,0.00,,,0.00,WUHU216HW,2013-04-12 18:30:00,
2013-04-12 11:34:00,63.4,51.4,29.90,SSE,158,2.2,4.7,65,0.00,,,0.00,WUHU216HW,2013-04-12 18:34:00,
2013-04-12 11:41:00,64.4,52.4,29.90,SW,225,2.7,4.9,65,0.00,,,0.00,WUHU216HW,2013-04-12 18:41:00,
2013-04-12 11:48:00,65.2,52.7,29.90,SSW,203,2.5,4.9,64,0.00,,,0.00,WUHU216HW,2013-04-12 18:48:00,
2013-04-12 12:09:00,66.6,53.7,29.89,SSW,203,1.6,6.9,63,0.00,,,0.00,WUHU216HW,2013-04-12 19:09:00,
2013-04-12 12:16:00,67.7,54.2,29.89,WSW,248,4.7,5.4,62,0.00,,,0.00,WUHU216HW,2013-04-12 19:16:00,
2013-04-12 12:26:00,68.0,54.6,29.89,West,270,2.5,5.4,62,0.00,,,0.00,WUHU216HW,2013-04-12 19:26:00,
2013-04-12 12:35:00,68.2,53.4,29.89,West,270,3.8,5.4,59,0.00,,,0.00,WUHU216HW,2013-04-12 19:35:00,
2013-04-12 12:40:00,68.2,53.4,29.88,SW,225,5.1,5.4,59,0.00,,,0.00,WUHU216HW,2013-04-12 19:40:00,
2013-04-12 12:45:00,68.2,53.4,29.88,North,0,3.4,5.1,59,0.00,,,0.00,WUHU216HW,2013-04-12 19:45:00,
2013-04-12 12:50:00,68.6,53.7,29.88,West,270,5.4,5.4,59,0.00,,,0.00,WUHU216HW,2013-04-12 19:50:00,
2013-04-12 12:55:00,69.3,53.9,29.88,West,270,3.4,5.4,58,0.00,,,0.00,WUHU216HW,2013-04-12 19:55:00,
2013-04-12 13:00:00,69.8,53.9,29.88,West,270,1.8,5.4,57,0.00,,,0.00,WUHU216HW,2013-04-12 20:00:00,
2013-04-12 13:05:00,70.4,53.9,29.88,SW,225,2.7,3.4,56,0.00,,,0.00,WUHU216HW,2013-04-12 20:05:00,
2013-04-12 13:10:00,70.6,54.1,29.88,WNW,293,4.7,4.7,56,0.00,,,0.00,WUHU216HW,2013-04-12 20:10:00,
2013-04-12 13:15:00,70.6,53.6,29.88,West,270,4.7,4.7,55,0.00,,,0.00,WUHU216HW,2013-04-12 20:15:00,
2013-04-12 13:20:00,70.7,53.2,29.88,NW,315,6.3,6.5,54,0.00,,,0.00,WUHU216HW,2013-04-12 20:20:00,
2013-04-12 13:25:00,70.7,53.2,29.88,WNW,293,1.6,6.5,54,0.00,,,0.00,WUHU216HW,2013-04-12 20:25:00,
2013-04-12 13:30:00,71.1,52.6,29.88,WSW,248,5.4,5.4,52,0.00,,,0.00,WUHU216HW,2013-04-12 20:30:00,
2013-04-12 13:35:00,71.5,52.4,29.87,WNW,293,4.7,5.4,51,0.00,,,0.00,WUHU216HW,2013-04-12 20:35:00,
2013-04-12 13:40:00,71.6,52.0,29.88,West,270,7.4,7.4,50,0.00,,,0.00,WUHU216HW,2013-04-12 20:40:00,
2013-04-12 13:45:00,71.6,52.0,29.87,WNW,293,2.2,7.4,50,0.00,,,0.00,WUHU216HW,2013-04-12 20:45:00,
2013-04-12 13:50:00,72.2,52.5,29.87,SW,225,4.9,7.4,50,0.00,,,0.00,WUHU216HW,2013-04-12 20:50:00,
2013-04-12 13:55:00,72.4,51.5,29.87,WNW,293,9.8,9.8,48,0.00,,,0.00,WUHU216HW,2013-04-12 20:55:00,
2013-04-12 14:00:00,72.4,50.9,29.86,SSW,203,2.5,9.8,47,0.00,,,0.00,WUHU216HW,2013-04-12 21:00:00,
2013-04-12 14:05:00,72.4,50.9,29.87,SW,225,7.4,9.8,47,0.00,,,0.00,WUHU216HW,2013-04-12 21:05:00,
2013-04-12 14:10:00,72.5,51.0,29.87,West,270,6.0,7.4,47,0.00,,,0.00,WUHU216HW,2013-04-12 21:10:00,
2013-04-12 14:15:00,72.7,51.2,29.86,West,270,5.8,6.0,47,0.00,,,0.00,WUHU216HW,2013-04-12 21:15:00,
2013-04-12 14:20:00,72.9,51.4,29.86,NW,315,4.7,6.7,47,0.00,,,0.00,WUHU216HW,2013-04-12 21:20:00,
2013-04-12 14:25:00,73.3,51.7,29.86,West,270,4.3,6.7,47,0.00,,,0.00,WUHU216HW,2013-04-12 21:25:00,
2013-04-12 14:30:00,73.4,51.8,29.86,SW,225,4.0,4.9,47,0.00,,,0.00,WUHU216HW,2013-04-12 21:30:00,
2013-04-12 14:35:00,73.6,51.5,29.86,West,270,6.7,6.7,46,0.00,,,0.00,WUHU216HW,2013-04-12 21:35:00,
2013-04-12 14:40:00,73.6,50.9,29.86,WSW,248,1.1,6.7,45,0.00,,,0.00,WUHU216HW,2013-04-12 21:40:00,
2013-04-12 14:45:00,73.8,51.0,29.86,NW,315,2.0,6.7,45,0.00,,,0.00,WUHU216HW,2013-04-12 21:45:00,
2013-04-12 14:50:00,73.6,50.2,29.86,West,270,2.9,2.9,44,0.00,,,0.00,WUHU216HW,2013-04-12 21:50:00,
2013-04-12 14:55:00,73.6,50.9,29.85,SSW,203,4.0,4.3,45,0.00,,,0.00,WUHU216HW,2013-04-12 21:55:00,
2013-04-12 15:00:00,73.8,51.0,29.85,West,270,4.3,4.3,45,0.00,,,0.00,WUHU216HW,2013-04-12 22:00:00,
2013-04-12 15:05:00,73.8,51.0,29.85,West,270,7.2,7.2,45,0.00,,,0.00,WUHU216HW,2013-04-12 22:05:00,
2013-04-12 15:10:00,74.2,51.4,29.85,WSW,248,4.0,7.2,45,0.00,,,0.00,WUHU216HW,2013-04-12 22:10:00,
2013-04-12 15:15:00,74.5,51.7,29.85,WNW,293,7.6,7.6,45,0.00,,,0.00,WUHU216HW,2013-04-12 22:15:00,
2013-04-12 15:20:00,74.9,51.4,29.85,West,270,4.7,7.6,44,0.00,,,0.00,WUHU216HW,2013-04-12 22:20:00,
2013-04-12 15:25:00,74.7,51.3,29.84,West,270,5.8,7.6,44,0.00,,,0.00,WUHU216HW,2013-04-12 22:25:00,
2013-04-12 15:30:00,74.7,51.3,29.84,West,270,5.6,5.8,44,0.00,,,0.00,WUHU216HW,2013-04-12 22:30:00,
2013-04-12 15:35:00,74.9,51.4,29.84,WSW,248,5.6,7.6,44,0.00,,,0.00,WUHU216HW,2013-04-12 22:35:00,
2013-04-12 15:40:00,74.9,50.9,29.84,SSW,203,3.6,7.6,43,0.00,,,0.00,WUHU216HW,2013-04-12 22:40:00,
2013-04-12 15:45:00,75.1,50.4,29.83,WNW,293,5.4,7.2,42,0.00,,,0.00,WUHU216HW,2013-04-12 22:45:00,
2013-04-12 15:50:00,75.1,51.6,29.84,WSW,248,10.5,10.5,44,0.00,,,0.00,WUHU216HW,2013-04-12 22:50:00,
2013-04-12 15:55:00,74.5,51.1,29.84,NW,315,10.3,10.5,44,0.00,,,0.00,WUHU216HW,2013-04-12 22:55:00,
2013-04-12 16:00:00,74.2,50.8,29.84,WNW,293,9.4,10.5,44,0.00,,,0.00,WUHU216HW,2013-04-12 23:00:00,
2013-04-12 16:05:00,73.8,50.4,29.84,WSW,248,5.6,11.2,44,0.00,,,0.00,WUHU216HW,2013-04-12 23:05:00,
2013-04-12 16:10:00,73.8,49.9,29.84,WNW,293,9.6,11.2,43,0.00,,,0.00,WUHU216HW,2013-04-12 23:10:00,
2013-04-12 16:15:00,73.8,50.4,29.84,North,0,5.4,9.6,44,0.00,,,0.00,WUHU216HW,2013-04-12 23:15:00,
2013-04-12 16:20:00,73.6,50.2,29.84,WNW,293,6.5,10.1,44,0.00,,,0.00,WUHU216HW,2013-04-12 23:20:00,
2013-04-12 16:25:00,73.4,50.7,29.84,West,270,8.7,10.1,45,0.00,,,0.00,WUHU216HW,2013-04-12 23:25:00,
2013-04-12 16:30:00,73.3,50.5,29.84,West,270,9.6,9.6,45,0.00,,,0.00,WUHU216HW,2013-04-12 23:30:00,
2013-04-12 16:35:00,72.7,50.6,29.84,West,270,9.2,9.6,46,0.00,,,0.00,WUHU216HW,2013-04-12 23:35:00,
2013-04-12 16:40:00,72.0,50.6,29.84,WSW,248,6.3,9.2,47,0.00,,,0.00,WUHU216HW,2013-04-12 23:40:00,
2013-04-12 16:45:00,71.6,50.2,29.84,NW,315,5.8,8.3,47,0.00,,,0.00,WUHU216HW,2013-04-12 23:45:00,
2013-04-12 16:50:00,71.5,50.7,29.85,WSW,248,9.2,9.4,48,0.00,,,0.00,WUHU216HW,2013-04-12 23:50:00,
2013-04-12 16:55:00,71.1,50.3,29.85,West,270,9.6,9.6,48,0.00,,,0.00,WUHU216HW,2013-04-12 23:55:00,
2013-04-12 17:00:00,70.7,50.1,29.85,West,270,6.3,9.6,48,0.00,,,0.00,WUHU216HW,2013-04-13 00:00:00,
2013-04-12 17:05:00,70.0,50.0,29.85,WSW,248,7.8,9.6,49,0.00,,,0.00,WUHU216HW,2013-04-13 00:05:00,
2013-04-12 17:10:00,69.8,50.4,29.85,West,270,6.5,10.5,50,0.00,,,0.00,WUHU216HW,2013-04-13 00:10:00,
2013-04-12 17:15:00,69.5,50.6,29.85,WNW,293,5.6,10.5,51,0.00,,,0.00,WUHU216HW,2013-04-13 00:15:00,
2013-04-12 17:20:00,69.3,50.4,29.85,West,270,12.1,12.1,51,0.00,,,0.00,WUHU216HW,2013-04-13 00:20:00,
2013-04-12 17:25:00,68.8,50.4,29.85,West,270,7.6,12.1,52,0.00,,,0.00,WUHU216HW,2013-04-13 00:25:00,
2013-04-12 17:30:00,68.2,50.9,29.85,WSW,248,10.1,10.1,54,0.00,,,0.00,WUHU216HW,2013-04-13 00:30:00,
2013-04-12 17:35:00,68.0,50.8,29.85,West,270,9.2,10.1,54,0.00,,,0.00,WUHU216HW,2013-04-13 00:35:00,
2013-04-12 17:40:00,68.0,50.8,29.85,WNW,293,9.4,10.1,54,0.00,,,0.00,WUHU216HW,2013-04-13 00:40:00,
2013-04-12 17:45:00,68.0,50.8,29.85,West,270,7.4,9.4,54,0.00,,,0.00,WUHU216HW,2013-04-13 00:45:00,
2013-04-12 17:50:00,68.0,50.8,29.85,WNW,293,6.0,9.4,54,0.00,,,0.00,WUHU216HW,2013-04-13 00:50:00,
2013-04-12 17:55:00,67.9,51.0,29.85,NW,315,6.7,6.7,55,0.00,,,0.00,WUHU216HW,2013-04-13 00:55:00,
2013-04-12 18:00:00,67.3,51.0,29.85,West,270,5.1,6.7,56,0.00,,,0.00,WUHU216HW,2013-04-13 01:00:00,
2013-04-12 18:06:00,67.0,50.8,29.85,WSW,248,4.9,5.1,56,0.00,,,0.00,WUHU216HW,2013-04-13 01:06:00,
2013-04-12 18:11:00,67.0,50.8,29.86,WNW,293,4.0,8.1,56,0.00,,,0.00,WUHU216HW,2013-04-13 01:11:00,
2013-04-12 18:16:00,66.6,50.4,29.85,West,270,3.8,8.1,56,0.00,,,0.00,WUHU216HW,2013-04-13 01:16:00,
2013-04-12 18:21:00,66.6,50.9,29.86,NW,315,5.1,5.1,57,0.00,,,0.00,WUHU216HW,2013-04-13 01:21:00,
2013-04-12 18:26:00,66.4,50.2,29.85,West,270,6.3,6.3,56,0.00,,,0.00,WUHU216HW,2013-04-13 01:26:00,
2013-04-12 18:31:00,66.2,50.6,29.85,West,270,1.1,6.3,57,0.00,,,0.00,WUHU216HW,2013-04-13 01:31:00,
2013-04-12 18:36:00,65.7,50.5,29.86,WSW,248,1.8,6.3,58,0.00,,,0.00,WUHU216HW,2013-04-13 01:36:00,
2013-04-12 18:41:00,65.5,50.3,29.86,SW,225,2.0,5.4,58,0.00,,,0.00,WUHU216HW,2013-04-13 01:41:00,
2013-04-12 18:46:00,65.5,50.3,29.86,WSW,248,1.8,3.4,58,0.00,,,0.00,WUHU216HW,2013-04-13 01:46:00,
2013-04-12 18:51:00,65.3,50.7,29.86,WSW,248,4.0,4.7,59,0.00,,,0.00,WUHU216HW,2013-04-13 01:51:00,
2013-04-12 18:56:00,65.5,50.3,29.86,WNW,293,7.8,7.8,58,0.00,,,0.00,WUHU216HW,2013-04-13 01:56:00,
2013-04-12 19:01:00,65.5,50.3,29.86,West,270,6.7,7.8,58,0.00,,,0.00,WUHU216HW,2013-04-13 02:01:00,
2013-04-12 19:06:00,64.8,50.1,29.86,WNW,293,6.9,6.9,59,0.00,,,0.00,WUHU216HW,2013-04-13 02:06:00,
2013-04-12 19:11:00,64.1,49.4,29.86,WSW,248,5.4,6.9,59,0.00,,,0.00,WUHU216HW,2013-04-13 02:11:00,
2013-04-12 19:16:00,63.7,49.1,29.86,NW,315,6.5,6.5,59,0.00,,,0.00,WUHU216HW,2013-04-13 02:16:00,
2013-04-12 19:21:00,63.2,48.6,29.87,West,270,6.0,6.5,59,0.00,,,0.00,WUHU216HW,2013-04-13 02:21:00,
2013-04-12 19:26:00,62.5,48.4,29.87,West,270,7.6,7.6,60,0.00,,,0.00,WUHU216HW,2013-04-13 02:26:00,
2013-04-12 19:31:00,62.1,48.5,29.87,WNW,293,5.8,7.6,61,0.00,,,0.00,WUHU216HW,2013-04-13 02:31:00,
2013-04-12 19:36:00,61.7,48.6,29.86,WNW,293,6.3,7.6,62,0.00,,,0.00,WUHU216HW,2013-04-13 02:36:00,
2013-04-12 19:41:00,61.2,48.5,29.86,NW,315,4.7,6.3,63,0.00,,,0.00,WUHU216HW,2013-04-13 02:41:00,
2013-04-12 19:46:00,61.0,48.4,29.86,WNW,293,4.5,6.3,63,0.00,,,0.00,WUHU216HW,2013-04-13 02:46:00,
2013-04-12 19:51:00,60.8,48.6,29.87,WNW,293,8.9,8.9,64,0.00,,,0.00,WUHU216HW,2013-04-13 02:51:00,
2013-04-12 19:56:00,60.1,48.3,29.86,West,270,5.8,8.9,65,0.00,,,0.00,WUHU216HW,2013-04-13 02:56:00,
2013-04-12 20:01:00,59.8,47.5,29.87,WNW,293,4.5,7.8,64,0.00,,,0.00,WUHU216HW,2013-04-13 03:01:00,
2013-04-12 20:06:00,59.4,47.2,29.87,West,270,6.9,9.2,64,0.00,,,0.00,WUHU216HW,2013-04-13 03:06:00,
2013-04-12 20:11:00,59.0,47.3,29.87,NW,315,6.7,9.2,65,0.00,,,0.00,WUHU216HW,2013-04-13 03:11:00,
2013-04-12 20:16:00,58.7,47.4,29.87,WNW,293,7.6,7.6,66,0.00,,,0.00,WUHU216HW,2013-04-13 03:16:00,
2013-04-12 20:22:00,58.5,47.2,29.87,West,270,4.7,7.6,66,0.00,,,0.00,WUHU216HW,2013-04-13 03:22:00,
2013-04-12 20:27:00,58.3,47.0,29.87,West,270,3.4,8.1,66,0.00,,,0.00,WUHU216HW,2013-04-13 03:27:00,
2013-04-12 20:32:00,58.1,47.3,29.88,WNW,293,6.3,8.1,67,0.00,,,0.00,WUHU216HW,2013-04-13 03:32:00,
2013-04-12 20:37:00,58.0,47.1,29.88,West,270,4.7,6.3,67,0.00,,,0.00,WUHU216HW,2013-04-13 03:37:00,
2013-04-12 20:42:00,58.0,47.1,29.88,WSW,248,4.3,5.4,67,0.00,,,0.00,WUHU216HW,2013-04-13 03:42:00,
2013-04-12 20:47:00,58.1,47.3,29.88,West,270,2.9,4.7,67,0.00,,,0.00,WUHU216HW,2013-04-13 03:47:00,
2013-04-12 20:52:00,58.3,47.0,29.88,NW,315,3.8,4.7,66,0.00,,,0.00,WUHU216HW,2013-04-13 03:52:00,
2013-04-12 20:57:00,58.1,46.8,29.88,NW,315,3.8,4.7,66,0.00,,,0.00,WUHU216HW,2013-04-13 03:57:00,
2013-04-12 21:02:00,57.8,46.9,29.88,West,270,1.8,4.3,67,0.00,,,0.00,WUHU216HW,2013-04-13 04:02:00,
2013-04-12 21:07:00,57.6,46.7,29.88,NNW,338,2.0,4.7,67,0.00,,,0.00,WUHU216HW,2013-04-13 04:07:00,
2013-04-12 21:12:00,57.2,46.7,29.88,WSW,248,3.4,4.7,68,0.00,,,0.00,WUHU216HW,2013-04-13 04:12:00,
2013-04-12 21:17:00,57.2,46.7,29.88,NW,315,2.5,4.7,68,0.00,,,0.00,WUHU216HW,2013-04-13 04:17:00,
2013-04-12 21:22:00,57.2,46.7,29.88,West,270,3.1,4.5,68,0.00,,,0.00,WUHU216HW,2013-04-13 04:22:00,
2013-04-12 21:27:00,57.1,46.5,29.88,West,270,3.1,4.5,68,0.00,,,0.00,WUHU216HW,2013-04-13 04:27:00,
2013-04-12 21:32:00,56.9,46.8,29.89,West,270,5.4,5.4,69,0.00,,,0.00,WUHU216HW,2013-04-13 04:32:00,
2013-04-12 21:37:00,56.7,46.6,29.89,WSW,248,2.0,5.8,69,0.00,,,0.00,WUHU216HW,2013-04-13 04:37:00,
2013-04-12 21:42:00,56.5,46.4,29.89,WNW,293,5.1,7.8,69,0.00,,,0.00,WUHU216HW,2013-04-13 04:42:00,
2013-04-12 21:47:00,56.2,46.5,29.90,NW,315,5.4,7.8,70,0.00,,,0.00,WUHU216HW,2013-04-13 04:47:00,
2013-04-12 21:52:00,56.0,46.4,29.90,West,270,4.3,6.5,70,0.00,,,0.00,WUHU216HW,2013-04-13 04:52:00,
2013-04-12 21:57:00,55.8,46.5,29.90,West,270,4.0,5.1,71,0.00,,,0.00,WUHU216HW,2013-04-13 04:57:00,
2013-04-12 22:02:00,55.8,46.5,29.90,WNW,293,5.6,5.6,71,0.00,,,0.00,WUHU216HW,2013-04-13 05:02:00,
2013-04-12 22:07:00,55.8,46.5,29.90,West,270,4.7,8.5,71,0.00,,,0.00,WUHU216HW,2013-04-13 05:07:00,
2013-04-12 22:12:00,55.6,46.5,29.90,NW,315,2.5,8.5,71,0.00,,,0.00,WUHU216HW,2013-04-13 05:12:00,
2013-04-12 22:17:00,55.4,46.3,29.91,West,270,3.4,7.6,71,0.00,,,0.00,WUHU216HW,2013-04-13 05:17:00,
2013-04-12 22:22:00,55.3,46.1,29.90,West,270,4.0,6.0,71,0.00,,,0.00,WUHU216HW,2013-04-13 05:22:00,
2013-04-12 22:27:00,54.9,45.7,29.90,West,270,7.6,7.6,71,0.00,,,0.00,WUHU216HW,2013-04-13 05:27:00,
2013-04-12 22:32:00,54.7,45.6,29.90,West,270,4.3,7.6,71,0.00,,,0.00,WUHU216HW,2013-04-13 05:32:00,
2013-04-12 22:37:00,54.5,45.7,29.91,NNW,338,5.4,7.6,72,0.00,,,0.00,WUHU216HW,2013-04-13 05:37:00,
2013-04-12 22:42:00,54.4,45.6,29.90,NNW,338,5.4,6.7,72,0.00,,,0.00,WUHU216HW,2013-04-13 05:42:00,
2013-04-12 22:47:00,54.4,45.6,29.90,West,270,4.0,6.7,72,0.00,,,0.00,WUHU216HW,2013-04-13 05:47:00,
2013-04-12 22:52:00,54.4,45.6,29.90,NW,315,6.7,7.8,72,0.00,,,0.00,WUHU216HW,2013-04-13 05:52:00,
2013-04-12 22:57:00,54.2,45.4,29.91,NNW,338,4.0,7.8,72,0.00,,,0.00,WUHU216HW,2013-04-13 05:57:00,
2013-04-12 23:02:00,54.0,45.6,29.91,West,270,3.1,7.6,73,0.00,,,0.00,WUHU216HW,2013-04-13 06:02:00,
2013-04-12 23:07:00,54.0,45.6,29.91,WNW,293,3.4,6.3,73,0.00,,,0.00,WUHU216HW,2013-04-13 06:07:00,
2013-04-12 23:12:00,53.6,45.2,29.91,NW,315,3.8,5.1,73,0.00,,,0.00,WUHU216HW,2013-04-13 06:12:00,
2013-04-12 23:17:00,53.6,45.2,29.91,West,270,5.6,5.6,73,0.00,,,0.00,WUHU216HW,2013-04-13 06:17:00,
2013-04-12 23:23:00,53.5,45.4,29.91,NW,315,7.2,7.2,74,0.00,,,0.00,WUHU216HW,2013-04-13 06:23:00,
2013-04-12 23:28:00,53.3,44.8,29.91,WNW,293,2.7,7.2,73,0.00,,,0.00,WUHU216HW,2013-04-13 06:28:00,
2013-04-12 23:33:00,53.1,45.0,29.91,WNW,293,5.4,5.4,74,0.00,,,0.00,WUHU216HW,2013-04-13 06:33:00,
2013-04-12 23:38:00,53.1,45.0,29.91,NNW,338,2.2,5.4,74,0.00,,,0.00,WUHU216HW,2013-04-13 06:38:00,
2013-04-12 23:43:00,53.3,45.2,29.91,WNW,293,2.5,5.4,74,0.00,,,0.00,WUHU216HW,2013-04-13 06:43:00,
2013-04-12 23:49:00,53.1,45.0,29.91,NW,315,4.7,5.1,74,0.00,,,0.00,WUHU216HW,2013-04-13 06:49:00,
2013-04-12 23:54:00,52.9,44.8,29.91,NW,315,2.2,4.7,74,0.00,,,0.00,WUHU216HW,2013-04-13 06:54:00,
2013-04-12 23:59:00,52.9,44.8,29.91,WNW,293,0.9,4.0,74,0.00,,,0.00,WUHU216HW,2013-04-13 06:59:00,